createdAt,value
2018-09-06T03:57:06.983Z,93.70
2018-09-06T04:04:29.883Z,102.60
2018-09-06T04:06:57.738Z,123.50
2018-09-06T04:09:25.834Z,111.77
2018-09-06T04:11:53.482Z,90.60
2018-09-06T04:19:20.997Z,104.53
2018-09-06T04:21:48.712Z,94.00
2018-09-06T04:24:17.177Z,100.05
2018-09-06T04:26:45.330Z,96.60
2018-09-06T04:29:13.818Z,88.00
2018-09-06T04:31:41.405Z,103.90
2018-09-06T04:34:09.088Z,110.10
2018-09-06T04:36:37.738Z,104.10
2018-09-06T04:39:07.845Z,100.53
2018-09-06T04:41:35.643Z,91.23
2018-09-06T04:44:03.951Z,116.77
2018-09-06T04:46:31.708Z,104.93
2018-09-06T04:48:59.792Z,99.53
2018-09-06T04:51:29.347Z,95.87
2018-09-06T04:54:03.258Z,88.60
2018-09-06T04:56:33.043Z,81.53
2018-09-06T04:59:02.740Z,104.10
2018-09-06T05:04:23.525Z,88.60
2018-09-06T05:06:54.211Z,93.63
2018-09-06T05:09:23.218Z,105.90
2018-09-06T05:11:59.186Z,110.97
2018-09-06T05:14:29.729Z,133.03
2018-09-06T05:17:03.243Z,116.00
2018-09-06T05:19:32.554Z,126.90
2018-09-06T05:22:01.253Z,120.93
2018-09-06T05:24:29.133Z,109.43
2018-09-06T05:26:58.140Z,113.80
2018-09-06T05:29:26.527Z,111.63
2018-09-06T05:31:55.640Z,113.77
2018-09-06T05:34:23.440Z,99.53
2018-09-06T05:36:51.795Z,89.33
2018-09-06T05:39:20.268Z,85.53
2018-09-06T05:41:49.363Z,94.13
2018-09-06T05:44:17.615Z,104.23
2018-09-06T05:46:45.879Z,109.90
2018-09-06T05:49:13.831Z,108.83
2018-09-06T05:51:41.751Z,108.13
2018-09-06T05:54:10.741Z,92.33
2018-09-06T05:56:39.661Z,94.67
2018-09-06T05:59:07.451Z,95.70
2018-09-06T06:01:35.821Z,114.03
2018-09-06T06:04:05.416Z,103.77
2018-09-06T06:06:34.737Z,100.20
2018-09-06T06:09:04.895Z,103.80
2018-09-06T06:11:33.901Z,110.73
2018-09-06T06:14:02.908Z,118.97
2018-09-06T06:16:31.600Z,105.03
2018-09-06T06:19:11.061Z,104.83
2018-09-06T06:21:39.965Z,135.00
2018-09-06T06:24:13.080Z,122.53
2018-09-06T06:26:42.132Z,106.63
2018-09-06T06:29:10.304Z,125.20
2018-09-06T06:31:38.929Z,103.53
2018-09-06T06:34:06.946Z,118.20
2018-09-06T06:36:36.149Z,106.20
2018-09-06T07:16:13.942Z,79.87
2018-09-06T07:30:58.532Z,65.87
2018-09-06T07:33:26.294Z,63.53
2018-09-06T07:35:54.200Z,72.63
2018-09-06T07:38:22.142Z,68.50
2018-09-06T07:40:49.924Z,73.43
2018-09-06T07:43:17.710Z,68.13
2018-09-06T07:45:45.872Z,67.43
2018-09-06T07:48:13.451Z,62.43
2018-09-06T07:50:41.219Z,61.70
2018-09-06T07:53:09.095Z,69.40
2018-09-06T07:55:36.970Z,72.57
2018-09-06T07:58:05.086Z,70.93
2018-09-06T08:00:32.968Z,74.13
2018-09-06T08:03:00.736Z,73.20
2018-09-06T08:05:28.690Z,68.97
2018-09-06T08:07:56.589Z,71.07
2018-09-06T08:10:24.324Z,58.47
2018-09-06T08:12:52.219Z,61.23
2018-09-06T08:15:20.013Z,60.60
2018-09-06T08:17:54.375Z,64.90
2018-09-06T08:20:22.184Z,71.63
2018-09-06T08:22:50.018Z,67.53
2018-09-06T08:25:17.793Z,70.93
2018-09-06T08:27:45.689Z,63.60
2018-09-06T08:30:13.464Z,56.30
2018-09-06T08:32:41.216Z,74.10
2018-09-06T08:35:09.215Z,72.27
2018-09-06T08:37:37.010Z,71.90
2018-09-06T08:40:04.755Z,66.77
2018-09-06T08:42:32.427Z,62.80
2018-09-06T08:45:00.152Z,53.97
2018-09-06T08:47:28.051Z,54.13
2018-09-06T08:49:55.743Z,45.40
2018-09-06T08:52:23.445Z,50.00
2018-09-06T08:54:51.011Z,44.40
2018-09-06T08:57:18.814Z,52.53
2018-09-06T08:59:46.368Z,39.23
2018-09-06T09:02:14.488Z,44.77
2018-09-06T09:04:42.127Z,45.07
2018-09-06T09:07:09.921Z,45.07
2018-09-06T09:09:37.663Z,41.90
2018-09-06T09:12:05.466Z,40.10
2018-09-06T09:14:33.620Z,36.73
2018-09-06T09:17:01.747Z,35.17
2018-09-06T09:19:29.494Z,33.50
2018-09-06T09:21:57.300Z,41.97
2018-09-06T09:24:26.043Z,39.17
2018-09-06T09:26:53.756Z,36.97
2018-09-06T09:29:21.574Z,40.73
2018-09-06T09:31:49.941Z,41.53
2018-09-06T09:34:17.764Z,41.37
2018-09-06T09:36:45.859Z,41.47
2018-09-06T09:39:13.645Z,45.80
2018-09-06T09:41:41.455Z,48.03
2018-09-06T09:44:09.185Z,45.20
2018-09-06T09:49:04.217Z,52.13
2018-09-06T09:51:32.062Z,52.70
2018-09-06T09:54:00.042Z,53.47
2018-09-06T09:56:28.138Z,56.90
2018-09-06T09:58:55.957Z,60.70
2018-09-06T10:01:28.373Z,63.17
2018-09-06T10:04:02.009Z,73.80
2018-09-06T10:06:35.590Z,77.97
2018-09-06T10:09:09.647Z,71.83
2018-09-06T10:11:37.759Z,78.00
2018-09-06T10:14:05.791Z,65.33
2018-09-06T10:16:34.989Z,57.27
2018-09-06T10:19:02.802Z,65.80
2018-09-06T10:21:32.107Z,67.40
2018-09-06T10:24:00.221Z,63.03
2018-09-06T10:26:28.428Z,63.67
2018-09-06T10:28:56.882Z,67.70
2018-09-06T10:31:24.967Z,79.00
2018-09-06T10:33:53.768Z,65.37
2018-09-06T10:36:21.746Z,59.80
2018-09-06T10:38:49.422Z,66.63
2018-09-06T10:41:17.297Z,65.53
2018-09-06T10:43:45.379Z,62.63
2018-09-06T10:46:13.128Z,57.63
2018-09-06T10:48:41.756Z,65.10
2018-09-06T10:51:09.744Z,63.23
2018-09-06T10:53:38.074Z,64.17
2018-09-06T10:56:06.016Z,66.67
2018-09-06T10:58:35.238Z,62.43
2018-09-06T11:01:08.926Z,69.83
2018-09-06T11:03:37.495Z,61.83
2018-09-06T11:06:05.487Z,66.80
2018-09-06T11:08:33.885Z,65.53
2018-09-06T11:11:01.596Z,65.10
2018-09-06T11:13:30.036Z,71.37
2018-09-06T11:15:58.129Z,85.03
2018-09-06T11:18:26.816Z,77.97
2018-09-06T12:44:38.492Z,57.10
2018-09-06T12:52:05.880Z,54.55
2018-09-06T13:04:24.146Z,59.73
2018-09-06T13:06:53.262Z,61.50
2018-09-06T13:09:21.334Z,59.93
2018-09-06T13:29:00.708Z,65.70
2018-09-06T15:14:44.066Z,37.43
2018-09-06T15:17:12.222Z,33.70
2018-09-06T15:19:40.317Z,35.33
2018-09-06T15:22:08.853Z,34.93
2018-09-06T15:24:37.248Z,33.10
2018-09-06T15:27:05.582Z,28.20
2018-09-06T15:29:33.959Z,32.83
2018-09-06T15:32:02.355Z,28.90
2018-09-06T15:34:30.363Z,28.77
2018-09-06T15:36:58.287Z,30.67
2018-09-06T15:39:26.760Z,31.03
2018-09-06T15:41:54.856Z,27.60
2018-09-06T15:46:50.438Z,32.40
2018-09-06T15:49:18.765Z,32.13
2018-09-06T15:56:40.876Z,30.27
2018-09-06T15:59:09.243Z,28.73
2018-09-06T16:01:37.469Z,39.37
2018-09-06T16:04:05.712Z,33.67
2018-09-06T16:06:33.776Z,35.67
2018-09-06T16:09:01.446Z,34.20
2018-09-06T16:11:29.164Z,35.30
2018-09-06T16:13:57.641Z,38.90
2018-09-06T16:16:25.894Z,34.63
2018-09-06T16:18:53.867Z,34.80
2018-09-06T16:21:21.624Z,37.67
2018-09-06T16:23:49.484Z,36.20
2018-09-06T16:26:18.405Z,41.80
2018-09-06T16:28:47.151Z,39.83
2018-09-06T16:31:15.393Z,42.53
2018-09-06T16:33:43.240Z,42.03
2018-09-06T16:36:11.560Z,40.13
2018-09-06T16:38:41.183Z,40.93
2018-09-06T16:41:09.147Z,43.73
2018-09-06T16:43:40.936Z,45.90
2018-09-06T16:46:08.798Z,40.67
2018-09-06T16:48:36.513Z,47.63
2018-09-06T16:51:05.096Z,47.10
2018-09-06T16:53:32.968Z,45.63
2018-09-06T16:56:00.818Z,46.03
2018-09-06T16:58:29.659Z,51.93
2018-09-06T17:00:57.826Z,45.23
2018-09-06T17:03:25.506Z,46.70
2018-09-06T17:05:54.123Z,44.53
2018-09-06T17:08:21.883Z,44.73
2018-09-06T17:10:51.976Z,48.03
2018-09-06T17:13:19.847Z,44.67
2018-09-06T17:15:47.706Z,45.37
2018-09-06T17:18:15.424Z,44.10
2018-09-06T17:20:43.094Z,45.53
2018-09-06T17:23:10.700Z,48.37
2018-09-06T17:25:38.780Z,43.13
2018-09-06T17:28:07.648Z,43.63
2018-09-06T17:30:35.871Z,40.50
2018-09-06T17:33:03.969Z,40.70
2018-09-06T17:35:36.240Z,34.67
2018-09-06T17:38:05.192Z,34.80
2018-09-06T17:40:34.372Z,27.03
2018-09-06T17:43:02.320Z,25.60
2018-09-06T17:45:31.338Z,23.77
2018-09-06T17:47:59.583Z,19.87
2018-09-06T17:50:27.715Z,20.87
2018-09-06T17:52:56.014Z,18.50
2018-09-06T17:55:23.986Z,16.97
2018-09-06T17:57:51.764Z,17.40
2018-09-06T18:00:19.746Z,19.63
2018-09-06T18:02:47.621Z,17.97
2018-09-06T18:05:15.611Z,18.40
2018-09-06T18:07:44.680Z,18.23
2018-09-06T18:10:13.361Z,17.07
2018-09-06T18:12:43.017Z,16.70
2018-09-06T18:15:11.371Z,19.00
2018-09-06T18:17:39.129Z,21.83
2018-09-06T18:20:07.295Z,16.07
2018-09-06T18:22:34.896Z,17.47
2018-09-06T18:25:09.633Z,14.60
2018-09-06T18:27:37.481Z,19.97
2018-09-06T18:30:06.082Z,16.10
2018-09-06T18:32:34.608Z,17.20
2018-09-06T18:35:04.707Z,14.77
2018-09-06T18:37:32.296Z,14.20
2018-09-06T18:40:00.486Z,14.93
2018-09-06T18:42:28.592Z,22.80
2018-09-06T18:44:56.956Z,13.00
2018-09-06T18:47:24.504Z,15.60
2018-09-06T18:49:52.308Z,11.00
2018-09-06T18:52:20.204Z,10.60
2018-09-06T18:54:49.767Z,11.30
2018-09-06T18:57:20.831Z,10.63
2018-09-06T18:59:49.750Z,13.33
2018-09-06T19:02:17.687Z,14.30
2018-09-06T19:04:47.076Z,11.17
2018-09-06T19:07:15.646Z,12.13
2018-09-06T19:09:43.605Z,12.50
2018-09-06T19:12:11.281Z,16.40
2018-09-06T19:14:39.455Z,13.60
2018-09-06T19:17:07.226Z,10.43
2018-09-06T19:19:35.357Z,11.67
2018-09-06T19:22:03.592Z,12.30
2018-09-06T19:24:33.455Z,16.80
2018-09-06T19:27:02.277Z,12.60
2018-09-06T19:29:31.053Z,13.43
2018-09-06T19:31:59.078Z,12.23
2018-09-06T19:34:27.233Z,11.90
2018-09-06T19:36:55.246Z,12.00
2018-09-06T19:39:22.931Z,12.63
2018-09-06T19:41:51.173Z,12.33
2018-09-06T19:44:19.793Z,12.37
2018-09-06T19:46:48.337Z,12.20
2018-09-06T19:49:16.688Z,16.80
2018-09-06T19:51:44.696Z,15.17
2018-09-06T19:54:12.318Z,16.93
2018-09-06T19:56:40.327Z,13.77
2018-09-06T19:59:08.278Z,13.67
2018-09-06T20:01:36.882Z,13.90
2018-09-06T20:04:15.002Z,14.70
2018-09-06T20:06:43.129Z,15.33
2018-09-06T20:09:10.844Z,16.77
2018-09-06T20:11:39.242Z,15.43
2018-09-06T20:14:07.255Z,19.70
2018-09-06T20:16:36.791Z,15.80
2018-09-06T20:19:05.523Z,13.10
2018-09-06T20:21:33.842Z,14.30
2018-09-06T20:24:02.629Z,16.10
2018-09-06T20:26:31.645Z,14.47
2018-09-06T20:28:59.763Z,19.40
2018-09-06T20:31:28.083Z,19.07
2018-09-06T20:33:56.624Z,16.03
2018-09-06T20:36:24.932Z,20.07
2018-09-06T20:39:03.365Z,18.80
2018-09-06T20:41:31.439Z,20.63
2018-09-06T20:44:00.332Z,24.73
2018-09-06T20:46:28.793Z,22.67
2018-09-06T20:48:57.043Z,26.73
2018-09-06T20:51:25.267Z,21.97
2018-09-06T20:57:03.810Z,22.43
2018-09-06T20:59:37.383Z,22.63
2018-09-06T21:02:11.297Z,18.87
2018-09-06T21:04:39.728Z,18.03
2018-09-06T21:07:12.177Z,21.27
2018-09-06T21:09:40.880Z,21.97
2018-09-06T21:12:09.633Z,21.07
2018-09-06T21:14:39.356Z,19.27
2018-09-06T21:17:08.713Z,23.20
2018-09-06T21:19:38.132Z,21.73
2018-09-06T21:22:06.816Z,22.10
2018-09-06T21:24:35.617Z,21.80
2018-09-06T21:27:05.762Z,22.03
2018-09-06T21:29:34.398Z,21.10
2018-09-06T21:32:04.288Z,21.33
2018-09-06T21:34:32.936Z,23.03
2018-09-06T21:37:02.224Z,24.20
2018-09-06T21:39:30.693Z,19.73
2018-09-06T21:42:02.156Z,21.23
2018-09-06T21:44:30.695Z,27.57
2018-09-06T21:46:59.309Z,30.03
2018-09-06T21:49:28.902Z,21.80
2018-09-06T21:51:58.385Z,24.47
2018-09-06T21:54:28.492Z,21.43
2018-09-06T21:56:57.093Z,24.73
2018-09-06T21:59:25.726Z,26.23
2018-09-06T22:01:55.341Z,24.47
2018-09-06T22:04:24.666Z,22.63
2018-09-06T22:07:02.727Z,24.10
2018-09-06T22:09:32.386Z,20.77
2018-09-06T22:12:21.308Z,19.27
2018-09-06T22:14:51.803Z,20.27
2018-09-06T22:17:21.732Z,19.23
2018-09-06T22:19:51.011Z,18.83
2018-09-06T22:22:20.361Z,21.30
2018-09-06T22:24:50.926Z,21.07
2018-09-06T22:27:22.876Z,19.90
2018-09-06T22:29:52.688Z,21.20
2018-09-06T22:32:22.015Z,22.30
2018-09-06T22:34:51.379Z,20.63
2018-09-06T22:37:20.640Z,23.43
2018-09-06T22:39:50.651Z,19.73
2018-09-06T22:42:22.303Z,22.00
2018-09-06T22:44:51.450Z,21.40
2018-09-06T22:47:21.788Z,22.57
2018-09-06T22:49:50.953Z,23.83
2018-09-06T22:52:20.488Z,20.10
2018-09-06T22:54:50.975Z,22.27
2018-09-06T22:57:20.245Z,23.27
2018-09-06T22:59:49.993Z,19.63
2018-09-06T23:02:19.410Z,21.07
2018-09-06T23:04:48.825Z,21.07
2018-09-06T23:07:18.138Z,18.40
2018-09-06T23:09:47.515Z,17.40
2018-09-06T23:12:16.951Z,21.60
2018-09-06T23:14:46.343Z,21.70
2018-09-06T23:17:15.837Z,25.10
2018-09-06T23:19:44.911Z,20.70
2018-09-06T23:22:14.213Z,21.10
2018-09-06T23:24:43.192Z,23.87
2018-09-06T23:27:12.905Z,19.33
2018-09-06T23:29:42.146Z,26.30
2018-09-06T23:32:14.858Z,23.90
2018-09-06T23:34:44.376Z,21.03
2018-09-06T23:37:15.503Z,24.17
2018-09-06T23:39:45.563Z,25.93
2018-09-06T23:42:17.298Z,22.93
2018-09-06T23:44:48.024Z,27.43
2018-09-06T23:47:18.931Z,27.90
2018-09-06T23:49:49.065Z,29.37
2018-09-06T23:52:18.439Z,26.97
2018-09-06T23:54:49.499Z,28.63
2018-09-06T23:57:19.667Z,27.30
2018-09-06T23:59:50.579Z,27.23
